createdAt,value
2022-09-03T00:02:08.291Z,0.82
2022-09-03T00:04:50.941Z,1.20
2022-09-03T00:07:23.939Z,2.08
2022-09-03T00:09:57.187Z,1.10
2022-09-03T00:12:29.942Z,1.07
2022-09-03T00:15:04.406Z,2.15
2022-09-03T00:17:37.480Z,2.78
2022-09-03T00:20:14.089Z,0.63
2022-09-03T00:22:46.405Z,0.90
2022-09-03T00:25:18.680Z,1.00
2022-09-03T00:27:53.025Z,1.25
2022-09-03T00:30:24.380Z,0.70
2022-09-03T00:32:58.147Z,2.75
2022-09-03T00:35:32.753Z,1.02
2022-09-03T00:38:03.315Z,0.98
2022-09-03T00:40:44.823Z,1.65
2022-09-03T00:43:25.572Z,1.00
2022-09-03T00:46:07.458Z,5.15
2022-09-03T00:48:41.648Z,1.33
2022-09-03T00:51:28.427Z,0.95
2022-09-03T00:54:02.997Z,0.63
2022-09-03T00:56:42.619Z,0.60
2022-09-03T00:59:18.129Z,0.98
2022-09-03T01:01:52.558Z,1.35
2022-09-03T01:04:29.319Z,1.70
2022-09-03T01:07:06.330Z,1.00
2022-09-03T01:09:49.475Z,9.10
2022-09-03T01:12:25.028Z,0.95
2022-09-03T01:15:07.094Z,3.70
2022-09-03T01:17:42.147Z,2.78
2022-09-03T01:20:18.100Z,1.10
2022-09-03T01:23:06.292Z,1.20
2022-09-03T01:25:48.606Z,0.80
2022-09-03T01:28:30.509Z,1.35
2022-09-03T01:31:02.804Z,2.13
2022-09-03T01:33:38.561Z,2.05
2022-09-03T01:36:14.543Z,1.63
2022-09-03T01:38:49.108Z,2.17
2022-09-03T01:41:35.700Z,2.35
2022-09-03T01:44:17.010Z,1.33
2022-09-03T01:46:48.955Z,1.50
2022-09-03T01:49:23.902Z,1.23
2022-09-03T01:51:58.329Z,1.75
2022-09-03T01:54:50.524Z,0.90
2022-09-03T01:57:37.425Z,1.05
2022-09-03T02:00:13.925Z,1.10
2022-09-03T02:02:47.913Z,1.30
2022-09-03T02:05:19.611Z,1.27
2022-09-03T02:07:53.132Z,1.80
2022-09-03T02:10:25.326Z,1.00
2022-09-03T02:12:57.105Z,2.85
2022-09-03T02:15:32.687Z,0.75
2022-09-03T02:18:06.592Z,1.48
2022-09-03T02:20:37.314Z,1.90
2022-09-03T02:23:07.700Z,1.13
2022-09-03T02:25:40.389Z,0.70
2022-09-03T02:28:17.003Z,4.47
2022-09-03T02:31:00.838Z,1.63
2022-09-03T02:33:31.575Z,1.80
2022-09-03T02:36:01.830Z,1.58
2022-09-03T02:38:31.876Z,1.83
2022-09-03T02:41:01.844Z,0.70
2022-09-03T02:43:35.690Z,1.42
2022-09-03T02:46:11.807Z,1.23
2022-09-03T02:48:41.890Z,2.15
2022-09-03T02:51:14.231Z,1.02
2022-09-03T02:53:45.125Z,3.17
2022-09-03T02:56:15.717Z,2.80
2022-09-03T02:58:46.016Z,1.05
2022-09-03T03:01:23.882Z,3.25
2022-09-03T03:03:54.565Z,1.48
2022-09-03T03:06:24.883Z,1.17
2022-09-03T03:08:57.143Z,1.25
2022-09-03T03:11:28.327Z,3.38
2022-09-03T03:13:58.420Z,1.63
2022-09-03T03:16:31.071Z,1.58
2022-09-03T03:19:01.395Z,2.92
2022-09-03T03:21:31.536Z,1.13
2022-09-03T03:24:01.543Z,0.85
2022-09-03T03:26:31.811Z,3.42
2022-09-03T03:29:04.728Z,1.25
2022-09-03T03:31:37.529Z,1.65
2022-09-03T03:34:07.767Z,2.10
2022-09-03T03:36:39.030Z,1.27
2022-09-03T03:39:09.558Z,2.75
2022-09-03T03:41:41.772Z,4.53
2022-09-03T03:44:12.093Z,1.30
2022-09-03T03:46:45.532Z,1.30
2022-09-03T03:49:15.467Z,1.80
2022-09-03T03:51:45.739Z,2.08
2022-09-03T03:54:17.554Z,1.67
2022-09-03T03:56:55.325Z,1.60
2022-09-03T03:59:25.891Z,2.13
2022-09-03T04:02:00.351Z,3.22
2022-09-03T04:04:30.458Z,1.60
2022-09-03T04:07:00.739Z,1.38
2022-09-03T04:09:31.020Z,1.67
2022-09-03T04:12:01.295Z,2.80
2022-09-03T04:14:31.435Z,1.80
2022-09-03T04:17:04.683Z,2.20
2022-09-03T04:19:34.727Z,1.65
2022-09-03T04:22:04.721Z,3.17
2022-09-03T04:24:35.845Z,2.72
2022-09-03T04:27:06.117Z,1.40
2022-09-03T04:29:36.371Z,2.28
2022-09-03T04:32:30.391Z,4.90
2022-09-03T04:35:00.635Z,2.05
2022-09-03T04:37:30.901Z,3.30
2022-09-03T04:40:01.212Z,2.15
2022-09-03T04:42:31.321Z,3.03
2022-09-03T04:45:01.577Z,1.73
2022-09-03T04:47:34.391Z,1.92
2022-09-03T04:50:04.693Z,1.50
2022-09-03T04:52:34.925Z,1.33
2022-09-03T04:55:05.618Z,2.72
2022-09-03T04:57:38.173Z,1.52
2022-09-03T05:00:12.120Z,3.08
2022-09-03T05:02:44.674Z,2.13
2022-09-03T05:05:14.923Z,1.63
2022-09-03T05:07:45.213Z,1.27
2022-09-03T05:10:20.551Z,1.30
2022-09-03T05:12:50.979Z,1.88
2022-09-03T05:15:21.273Z,3.10
2022-09-03T05:17:54.073Z,5.05
2022-09-03T05:20:24.402Z,1.77
2022-09-03T05:22:54.855Z,3.85
2022-09-03T05:25:25.143Z,3.28
2022-09-03T05:27:55.168Z,3.53
2022-09-03T05:30:25.622Z,3.53
2022-09-03T05:32:59.245Z,2.28
2022-09-03T05:35:30.260Z,2.50
2022-09-03T05:38:01.860Z,1.40
2022-09-03T05:40:33.260Z,1.55
2022-09-03T05:43:07.870Z,3.30
2022-09-03T05:45:39.100Z,2.25
2022-09-03T05:48:11.682Z,2.75
2022-09-03T05:50:41.927Z,2.53
2022-09-03T05:53:12.228Z,1.05
2022-09-03T05:55:42.443Z,2.78
2022-09-03T05:58:12.718Z,1.10
2022-09-03T06:00:42.915Z,2.08
2022-09-03T06:03:15.628Z,1.95
2022-09-03T06:05:53.345Z,2.58
2022-09-03T06:08:23.957Z,2.05
2022-09-03T06:10:54.218Z,2.20
2022-09-03T06:13:24.559Z,2.33
2022-09-03T06:15:59.546Z,1.98
2022-09-03T06:18:33.148Z,3.67
2022-09-03T06:21:04.492Z,1.83
2022-09-03T06:23:36.241Z,4.28
2022-09-03T06:26:08.565Z,0.90
2022-09-03T06:28:39.817Z,1.27
2022-09-03T06:31:11.770Z,3.40
2022-09-03T06:33:44.751Z,2.40
2022-09-03T06:36:16.286Z,2.65
2022-09-03T06:38:47.300Z,2.53
2022-09-03T06:41:21.151Z,1.80
2022-09-03T06:43:51.952Z,1.40
2022-09-03T06:46:24.012Z,2.67
2022-09-03T06:48:57.086Z,3.28
2022-09-03T06:51:28.871Z,1.55
2022-09-03T06:54:04.204Z,2.63
2022-09-03T06:56:39.500Z,1.15
2022-09-03T06:59:12.223Z,2.25
2022-09-03T07:01:45.269Z,1.73
2022-09-03T07:04:20.384Z,0.95
2022-09-03T07:06:50.711Z,1.58
2022-09-03T07:09:20.945Z,0.90
2022-09-03T07:11:51.228Z,2.15
2022-09-03T07:14:22.315Z,3.90
2022-09-03T07:16:53.077Z,1.85
2022-09-03T07:19:25.631Z,1.27
2022-09-03T07:21:55.627Z,1.30
2022-09-03T07:24:25.570Z,1.42
2022-09-03T07:26:58.217Z,1.13
2022-09-03T07:29:28.898Z,1.98
2022-09-03T07:31:58.958Z,1.60
2022-09-03T07:34:31.915Z,2.97
2022-09-03T07:37:02.010Z,2.33
2022-09-03T07:39:33.735Z,3.38
2022-09-03T07:42:03.733Z,3.13
2022-09-03T07:44:33.714Z,3.22
2022-09-03T07:47:03.733Z,2.67
2022-09-03T07:49:36.465Z,1.63
2022-09-03T07:52:08.023Z,2.10
2022-09-03T07:54:42.850Z,2.30
2022-09-03T07:57:12.824Z,1.85
2022-09-03T07:59:43.074Z,0.55
2022-09-03T08:02:13.098Z,1.85
2022-09-03T08:04:46.046Z,4.25
2022-09-03T08:07:16.060Z,5.07
2022-09-03T08:09:46.133Z,1.83
2022-09-03T08:12:16.129Z,2.75
2022-09-03T08:14:46.157Z,2.15
2022-09-03T08:17:16.184Z,2.78
2022-09-03T08:19:48.926Z,2.40
2022-09-03T08:22:18.925Z,1.65
2022-09-03T08:24:49.198Z,2.50
2022-09-03T08:27:26.225Z,2.40
2022-09-03T08:29:56.240Z,6.40
2022-09-03T08:32:26.198Z,1.42
2022-09-03T08:34:58.804Z,2.38
2022-09-03T08:37:29.095Z,2.17
2022-09-03T08:40:00.516Z,3.92
2022-09-03T08:42:46.504Z,1.13
2022-09-03T08:45:19.925Z,1.50
2022-09-03T08:47:52.722Z,1.65
2022-09-03T08:50:31.132Z,0.57
2022-09-03T08:53:05.556Z,2.03
2022-09-03T08:55:42.786Z,0.95
2022-09-03T08:58:15.253Z,1.58
2022-09-03T09:00:52.430Z,1.73
2022-09-03T09:03:42.449Z,1.35
2022-09-03T09:06:23.107Z,0.80
2022-09-03T09:09:01.892Z,1.63
2022-09-03T09:11:42.471Z,2.10
2022-09-03T09:14:21.584Z,2.15
2022-09-03T09:17:04.204Z,2.10
2022-09-03T09:19:45.451Z,2.63
2022-09-03T09:22:27.000Z,1.00
2022-09-03T09:24:59.162Z,2.20
2022-09-03T09:27:29.905Z,1.30
2022-09-03T09:30:04.504Z,1.27
2022-09-03T09:32:38.494Z,1.05
2022-09-03T09:35:12.325Z,1.75
2022-09-03T09:37:54.111Z,1.88
2022-09-03T09:40:34.490Z,2.28
2022-09-03T09:43:11.043Z,2.30
2022-09-03T09:45:43.051Z,3.30
2022-09-03T09:48:21.185Z,1.65
2022-09-03T09:50:51.259Z,1.02
2022-09-03T09:53:24.085Z,1.85
2022-09-03T09:55:58.453Z,1.45
2022-09-03T09:58:31.024Z,1.20
2022-09-03T10:01:04.376Z,5.78
2022-09-03T10:03:37.373Z,1.65
2022-09-03T10:06:22.768Z,1.57
2022-09-03T10:08:56.059Z,1.60
2022-09-03T10:11:27.963Z,2.83
2022-09-03T10:13:58.854Z,0.98
2022-09-03T10:16:32.314Z,1.23
2022-09-03T10:19:07.949Z,2.45
2022-09-03T10:21:46.389Z,1.90
2022-09-03T10:24:43.053Z,0.70
2022-09-03T10:27:16.129Z,3.85
2022-09-03T10:29:46.401Z,3.90
2022-09-03T10:32:39.862Z,1.90
2022-09-03T10:35:22.474Z,1.85
2022-09-03T10:37:58.148Z,2.42
2022-09-03T10:40:37.762Z,3.00
2022-09-03T10:43:39.091Z,3.97
2022-09-03T10:46:14.363Z,1.10
2022-09-03T10:49:11.882Z,0.88
2022-09-03T10:51:49.360Z,1.58
2022-09-03T10:55:02.601Z,1.58
2022-09-03T10:57:45.168Z,1.23
2022-09-03T11:00:18.326Z,0.77
2022-09-03T11:03:23.972Z,4.95
2022-09-03T11:06:05.086Z,1.98
2022-09-03T11:08:40.602Z,1.65
2022-09-03T11:11:16.987Z,1.35
2022-09-03T11:13:54.957Z,0.90
2022-09-03T11:16:29.083Z,2.25
2022-09-03T11:19:03.821Z,1.67
2022-09-03T11:21:35.700Z,3.95
2022-09-03T11:24:14.953Z,2.03
2022-09-03T11:26:48.467Z,1.98
2022-09-03T11:32:00.530Z,0.90
2022-09-03T11:34:34.025Z,2.33
2022-09-03T11:39:57.591Z,0.90
2022-09-03T11:42:33.083Z,1.58
2022-09-03T11:45:22.772Z,1.42
2022-09-03T11:47:53.884Z,0.90
2022-09-03T11:50:26.363Z,1.77
2022-09-03T11:52:58.912Z,4.18
2022-09-03T11:55:42.266Z,3.27
2022-09-03T11:58:16.099Z,1.75
2022-09-03T12:00:52.112Z,2.33
2022-09-03T12:03:28.654Z,4.63
2022-09-03T12:06:28.984Z,1.70
2022-09-03T12:09:23.542Z,2.83
2022-09-03T12:12:02.922Z,4.50
2022-09-03T12:14:44.144Z,2.25
2022-09-03T12:17:30.968Z,1.08
2022-09-03T12:20:02.062Z,1.63
2022-09-03T12:22:40.262Z,2.28
2022-09-03T12:25:13.161Z,2.10
2022-09-03T12:27:46.807Z,2.90
2022-09-03T12:30:19.876Z,1.40
2022-09-03T12:32:52.672Z,1.50
2022-09-03T12:38:18.811Z,1.90
2022-09-03T12:43:39.629Z,1.65
2022-09-03T12:46:18.094Z,1.67
2022-09-03T12:51:50.782Z,0.90
2022-09-03T12:54:23.304Z,1.17
2022-09-03T12:56:59.135Z,1.90
2022-09-03T12:59:31.583Z,0.90
2022-09-03T13:02:07.604Z,2.60
2022-09-03T13:04:42.621Z,2.90
2022-09-03T13:07:23.721Z,2.70
2022-09-03T13:09:54.289Z,1.55
2022-09-03T13:12:26.535Z,1.25
2022-09-03T13:15:00.314Z,3.47
2022-09-03T13:17:47.672Z,3.33
2022-09-03T13:20:34.075Z,1.83
2022-09-03T13:23:38.947Z,3.45
2022-09-03T13:26:21.746Z,1.98
2022-09-03T13:29:11.336Z,1.40
2022-09-03T13:31:46.532Z,1.50
2022-09-03T13:34:25.259Z,1.77
2022-09-03T13:37:03.303Z,2.13
2022-09-03T13:39:41.279Z,1.48
2022-09-03T13:42:18.835Z,1.50
2022-09-03T13:44:54.450Z,1.58
2022-09-03T13:47:33.863Z,1.95
2022-09-03T13:50:22.961Z,3.67
2022-09-03T13:53:01.146Z,2.10
2022-09-03T13:55:38.645Z,1.55
2022-09-03T13:58:13.436Z,1.27
2022-09-03T14:00:48.639Z,3.72
2022-09-03T14:03:30.080Z,1.88
2022-09-03T14:06:09.768Z,1.83
2022-09-03T14:08:58.931Z,1.33
2022-09-03T14:11:35.210Z,5.75
2022-09-03T14:14:20.375Z,1.90
2022-09-03T14:16:57.611Z,1.77
2022-09-03T14:19:39.320Z,2.58
2022-09-03T14:22:15.830Z,1.35
2022-09-03T14:24:53.858Z,2.22
2022-09-03T14:27:29.112Z,3.35
2022-09-03T14:30:03.974Z,2.42
2022-09-03T14:32:42.396Z,1.65
2022-09-03T14:35:26.425Z,2.22
2022-09-03T14:38:25.724Z,2.40
2022-09-03T14:41:07.338Z,1.35
2022-09-03T14:44:07.925Z,2.30
2022-09-03T14:47:00.127Z,3.53
2022-09-03T14:49:54.117Z,2.88
2022-09-03T14:52:44.272Z,1.77
2022-09-03T14:55:28.556Z,1.95
2022-09-03T14:58:20.945Z,2.00
2022-09-03T15:00:59.318Z,2.95
2022-09-03T15:03:52.361Z,2.20
2022-09-03T15:06:31.494Z,2.35
2022-09-03T15:09:26.275Z,3.70
2022-09-03T15:12:00.238Z,2.50
2022-09-03T15:14:38.268Z,2.03
2022-09-03T15:17:28.671Z,3.22
2022-09-03T15:20:15.931Z,2.22
2022-09-03T15:23:11.955Z,6.07
2022-09-03T15:25:50.496Z,2.45
2022-09-03T15:28:24.515Z,1.98
2022-09-03T15:33:39.176Z,3.45
2022-09-03T15:36:20.952Z,1.80
2022-09-03T15:38:58.316Z,1.90
2022-09-03T15:41:39.978Z,2.17
2022-09-03T15:44:19.232Z,2.13
2022-09-03T15:47:14.051Z,2.05
2022-09-03T15:49:54.943Z,4.72
2022-09-03T15:52:33.780Z,4.35
2022-09-03T15:55:12.347Z,2.88
2022-09-03T15:57:50.650Z,4.90
2022-09-03T16:00:25.392Z,1.98
2022-09-03T16:03:07.722Z,2.28
2022-09-03T16:05:45.691Z,2.90
2022-09-03T16:08:25.541Z,1.83
2022-09-03T16:11:04.914Z,1.48
2022-09-03T16:13:43.512Z,1.92
2022-09-03T16:16:18.628Z,1.55
2022-09-03T16:19:04.046Z,3.40
2022-09-03T16:21:40.024Z,2.20
2022-09-03T16:24:19.453Z,5.18
2022-09-03T16:26:57.591Z,2.65
2022-09-03T16:29:32.195Z,2.03
2022-09-03T16:32:16.663Z,1.80
2022-09-03T16:35:01.967Z,7.03
2022-09-03T16:37:38.217Z,2.58
2022-09-03T16:40:24.534Z,2.50
2022-09-03T16:43:23.808Z,6.00
2022-09-03T16:46:04.580Z,2.72
2022-09-03T16:48:38.397Z,10.77
2022-09-03T16:51:16.312Z,2.13
2022-09-03T16:54:07.524Z,3.58
2022-09-03T16:57:01.626Z,7.65
2022-09-03T17:00:08.328Z,4.15
2022-09-03T17:03:13.814Z,3.97
2022-09-03T17:06:00.694Z,3.88
2022-09-03T17:08:37.352Z,1.98
2022-09-03T17:11:15.284Z,1.88
2022-09-03T17:13:53.254Z,6.53
2022-09-03T17:16:30.356Z,3.13
2022-09-03T17:19:05.735Z,2.28
2022-09-03T17:21:51.350Z,3.28
2022-09-03T17:24:40.556Z,2.70
2022-09-03T17:27:34.191Z,4.03
2022-09-03T17:30:22.731Z,8.47
2022-09-03T17:33:27.500Z,4.35
2022-09-03T17:36:02.056Z,5.50
2022-09-03T17:38:56.448Z,3.22
2022-09-03T17:41:37.860Z,2.13
2022-09-03T17:44:14.993Z,1.95
2022-09-03T17:46:49.334Z,4.45
2022-09-03T17:49:24.103Z,2.75
2022-09-03T17:52:01.950Z,1.90
2022-09-03T17:54:41.351Z,2.03
2022-09-03T17:57:21.585Z,3.53
2022-09-03T17:59:58.782Z,1.90
2022-09-03T18:02:35.727Z,1.45
2022-09-03T18:05:19.724Z,4.25
2022-09-03T18:07:53.257Z,1.58
2022-09-03T18:10:27.928Z,2.20
2022-09-03T18:13:08.431Z,2.88
2022-09-03T18:15:41.130Z,3.17
2022-09-03T18:18:19.047Z,2.28
2022-09-03T18:21:23.335Z,1.88
2022-09-03T18:24:15.980Z,6.22
2022-09-03T18:27:02.951Z,2.13
2022-09-03T18:29:54.476Z,2.88
2022-09-03T18:32:37.096Z,2.33
2022-09-03T18:35:20.215Z,1.58
2022-09-03T18:38:02.850Z,2.50
2022-09-03T18:40:50.444Z,2.03
2022-09-03T18:43:38.170Z,5.43
2022-09-03T18:49:43.726Z,2.88
2022-09-03T18:52:31.070Z,2.80
2022-09-03T18:55:19.243Z,3.55
2022-09-03T18:58:13.992Z,1.92
2022-09-03T19:01:00.802Z,5.45
2022-09-03T19:03:55.429Z,5.85
2022-09-03T19:09:28.565Z,3.00
2022-09-03T19:12:22.371Z,2.53
2022-09-03T19:15:09.532Z,3.13
2022-09-03T19:18:01.696Z,3.10
2022-09-03T19:20:47.795Z,2.38
2022-09-03T19:23:30.345Z,4.90
2022-09-03T19:26:20.680Z,4.40
2022-09-03T19:29:03.938Z,2.72
2022-09-03T19:31:58.573Z,6.90
2022-09-03T19:37:44.289Z,3.78
2022-09-03T19:40:43.801Z,4.05
2022-09-03T19:43:37.025Z,4.75
2022-09-03T19:46:24.418Z,4.72
2022-09-03T19:49:18.621Z,3.22
2022-09-03T19:52:09.898Z,3.25
2022-09-03T19:54:55.785Z,4.07
2022-09-03T19:57:39.148Z,3.03
2022-09-03T20:00:33.011Z,3.53
2022-09-03T20:03:18.110Z,2.53
2022-09-03T20:06:01.402Z,2.97
2022-09-03T20:08:44.552Z,4.10
2022-09-03T20:11:20.883Z,4.22
2022-09-03T20:14:03.387Z,1.92
2022-09-03T20:16:35.715Z,4.20
2022-09-03T20:19:11.088Z,2.58
2022-09-03T20:21:46.538Z,2.60
2022-09-03T20:24:32.426Z,5.72
2022-09-03T20:27:08.639Z,1.90
2022-09-03T20:29:54.678Z,2.35
2022-09-03T20:32:32.597Z,2.65
2022-09-03T20:35:07.205Z,2.55
2022-09-03T20:37:43.919Z,3.20
2022-09-03T20:40:27.013Z,3.80
2022-09-03T20:43:18.298Z,2.97
2022-09-03T20:46:01.005Z,3.15
2022-09-03T20:48:38.980Z,2.92
2022-09-03T20:51:16.192Z,3.20
2022-09-03T20:54:02.209Z,3.10
2022-09-03T20:56:40.259Z,4.30
2022-09-03T20:59:22.126Z,3.08
2022-09-03T21:01:57.749Z,6.43
2022-09-03T21:04:46.436Z,3.72
2022-09-03T21:07:26.224Z,2.95
2022-09-03T21:10:03.670Z,4.65
2022-09-03T21:12:45.515Z,5.22
2022-09-03T21:15:26.862Z,4.78
2022-09-03T21:18:07.535Z,3.42
2022-09-03T21:20:46.249Z,2.90
2022-09-03T21:23:25.344Z,4.57
2022-09-03T21:26:05.850Z,4.45
2022-09-03T21:28:41.773Z,3.45
2022-09-03T21:31:22.292Z,4.20
2022-09-03T21:33:58.324Z,4.15
2022-09-03T21:36:32.986Z,3.38
2022-09-03T21:39:10.978Z,4.07
2022-09-03T21:41:47.627Z,4.60
2022-09-03T21:44:20.620Z,3.30
2022-09-03T21:46:56.863Z,4.07
2022-09-03T21:49:34.529Z,3.78
2022-09-03T21:52:09.010Z,2.55
2022-09-03T21:54:39.223Z,4.45
2022-09-03T21:57:22.116Z,3.95
2022-09-03T22:00:10.274Z,4.32
2022-09-03T22:02:46.296Z,4.47
2022-09-03T22:05:16.681Z,3.70
2022-09-03T22:08:13.278Z,3.38
2022-09-03T22:10:52.923Z,4.35
2022-09-03T22:13:32.507Z,3.97
2022-09-03T22:16:13.568Z,5.22
2022-09-03T22:18:47.215Z,3.95
2022-09-03T22:21:23.506Z,4.25
2022-09-03T22:24:14.762Z,5.03
2022-09-03T22:26:52.064Z,6.70
2022-09-03T22:29:32.356Z,4.10
2022-09-03T22:32:10.173Z,5.72
2022-09-03T22:34:54.452Z,4.50
2022-09-03T22:37:35.812Z,4.80
2022-09-03T22:40:16.331Z,4.90
2022-09-03T22:43:09.362Z,5.72
2022-09-03T22:46:00.359Z,6.07
2022-09-03T22:48:42.932Z,6.13
2022-09-03T22:51:21.060Z,10.23
2022-09-03T22:54:08.317Z,21.25
2022-09-03T22:56:42.697Z,16.13
2022-09-03T22:59:19.406Z,7.68
2022-09-03T23:01:59.055Z,13.80
2022-09-03T23:04:34.153Z,8.68
2022-09-03T23:07:18.976Z,8.48
2022-09-03T23:09:53.995Z,6.85
2022-09-03T23:12:35.907Z,7.70
2022-09-03T23:15:11.510Z,6.68
2022-09-03T23:17:45.588Z,6.50
2022-09-03T23:22:54.626Z,7.05
2022-09-03T23:25:28.846Z,8.00
2022-09-03T23:28:04.456Z,8.18
2022-09-03T23:30:34.762Z,5.97
2022-09-03T23:33:05.378Z,12.48
2022-09-03T23:35:50.552Z,5.47
2022-09-03T23:38:31.608Z,8.95
2022-09-03T23:41:07.044Z,5.32
2022-09-03T23:44:01.537Z,6.53
2022-09-03T23:46:33.184Z,6.30
2022-09-03T23:49:29.148Z,19.50
2022-09-03T23:52:16.146Z,17.63
2022-09-03T23:54:51.408Z,14.40
2022-09-03T23:57:25.671Z,21.92
